createdAt,value
2023-02-23T00:02:06.642Z,83.19
2023-02-23T00:07:08.331Z,83.62
2023-02-23T00:12:12.078Z,83.99
2023-02-23T00:17:15.151Z,84.69
2023-02-23T00:22:17.125Z,85.10
2023-02-23T00:27:21.010Z,85.08
2023-02-23T00:32:24.021Z,85.23
2023-02-23T00:37:26.352Z,85.79
2023-02-23T00:42:32.263Z,87.03
2023-02-23T00:47:36.674Z,86.99
2023-02-23T00:52:40.039Z,87.11
2023-02-23T00:57:41.955Z,87.53
2023-02-23T01:02:43.670Z,87.70
2023-02-23T01:07:46.507Z,87.34
2023-02-23T01:12:51.033Z,88.33
2023-02-23T01:17:52.785Z,88.62
2023-02-23T01:22:54.613Z,88.81
2023-02-23T01:27:56.326Z,89.06
2023-02-23T01:32:58.170Z,89.35
2023-02-23T01:37:59.952Z,89.64
2023-02-23T01:43:26.232Z,89.66
2023-02-23T01:48:34.277Z,89.75
2023-02-23T01:53:41.988Z,89.48
2023-02-23T01:58:47.314Z,89.51
2023-02-23T02:03:55.149Z,89.48
2023-02-23T02:09:06.587Z,88.81
2023-02-23T02:14:20.615Z,88.53
2023-02-23T02:19:23.150Z,88.31
2023-02-23T02:24:37.077Z,88.03
2023-02-23T02:30:16.973Z,88.00
2023-02-23T02:35:49.439Z,88.13
2023-02-23T02:41:07.634Z,87.81
2023-02-23T02:46:21.625Z,87.98
2023-02-23T02:51:43.847Z,87.51
2023-02-23T02:56:48.651Z,87.56
2023-02-23T03:02:09.349Z,87.39
2023-02-23T03:07:41.808Z,87.23
2023-02-23T03:13:35.327Z,87.08
2023-02-23T03:19:23.567Z,86.90
2023-02-23T03:24:59.693Z,86.96
2023-02-23T03:30:42.070Z,87.13
2023-02-23T03:36:20.506Z,87.26
2023-02-23T03:41:45.258Z,87.13
2023-02-23T03:47:07.869Z,87.50
2023-02-23T03:52:36.035Z,87.26
2023-02-23T03:58:00.353Z,87.65
2023-02-23T04:03:24.915Z,87.43
2023-02-23T04:08:52.457Z,87.25
2023-02-23T04:14:00.522Z,86.97
2023-02-23T04:19:02.408Z,87.74
2023-02-23T04:24:04.384Z,87.71
2023-02-23T04:29:06.069Z,87.66
2023-02-23T04:34:08.274Z,87.77
2023-02-23T04:39:09.957Z,87.69
2023-02-23T04:44:11.767Z,88.00
2023-02-23T04:49:13.449Z,87.96
2023-02-23T04:54:15.118Z,87.83
2023-02-23T04:59:16.842Z,88.28
2023-02-23T05:06:27.666Z,88.24
2023-02-23T05:11:30.233Z,88.39
2023-02-23T05:16:32.712Z,88.33
2023-02-23T05:21:34.413Z,88.50
2023-02-23T05:26:36.577Z,88.44
2023-02-23T05:31:38.430Z,87.86
2023-02-23T05:36:40.397Z,88.60
2023-02-23T05:41:42.185Z,88.60
2023-02-23T05:46:45.820Z,88.90
2023-02-23T05:51:47.563Z,88.61
2023-02-23T05:56:50.429Z,88.52
2023-02-23T06:01:52.336Z,88.83
2023-02-23T06:06:54.111Z,88.81
2023-02-23T06:11:55.830Z,88.74
2023-02-23T06:16:57.633Z,88.88
2023-02-23T06:21:59.450Z,88.98
2023-02-23T06:27:01.480Z,89.03
2023-02-23T06:32:03.952Z,88.68
2023-02-23T06:37:08.910Z,88.52
2023-02-23T06:42:11.023Z,88.12
2023-02-23T06:47:12.703Z,87.03
2023-02-23T06:52:14.344Z,87.15
2023-02-23T06:57:16.548Z,86.69
2023-02-23T07:02:18.289Z,85.78
2023-02-23T07:07:20.125Z,86.16
2023-02-23T07:12:21.847Z,85.51
2023-02-23T07:17:23.654Z,85.10
2023-02-23T07:22:29.422Z,84.98
2023-02-23T07:27:31.116Z,84.15
2023-02-23T07:32:32.989Z,84.01
2023-02-23T07:37:34.897Z,83.73
2023-02-23T07:42:36.918Z,83.31
2023-02-23T07:47:39.731Z,82.83
2023-02-23T07:52:43.213Z,82.55
2023-02-23T07:57:45.087Z,82.11
2023-02-23T08:02:46.887Z,81.55
2023-02-23T08:07:48.570Z,80.34
2023-02-23T08:12:50.300Z,80.58
2023-02-23T08:17:52.735Z,80.75
2023-02-23T08:22:55.238Z,79.33
2023-02-23T08:27:57.071Z,78.54
2023-02-23T08:32:58.914Z,78.88
2023-02-23T08:38:00.608Z,78.03
2023-02-23T08:43:02.401Z,76.89
2023-02-23T08:48:04.442Z,75.86
2023-02-23T08:53:07.081Z,76.36
2023-02-23T08:58:10.776Z,75.33
2023-02-23T09:03:12.467Z,75.21
2023-02-23T09:08:15.066Z,74.68
2023-02-23T09:13:17.202Z,72.19
2023-02-23T09:18:18.961Z,70.03
2023-02-23T09:23:20.759Z,69.38
2023-02-23T09:28:22.463Z,68.87
2023-02-23T09:33:24.207Z,67.08
2023-02-23T09:38:26.039Z,66.71
2023-02-23T09:43:50.830Z,64.96
2023-02-23T09:48:55.644Z,64.82
2023-02-23T09:54:01.665Z,63.94
2023-02-23T09:59:12.160Z,62.79
2023-02-23T10:04:37.408Z,60.87
2023-02-23T10:10:03.903Z,60.32
2023-02-23T10:15:18.666Z,61.04
2023-02-23T10:20:30.090Z,60.26
2023-02-23T10:25:34.660Z,59.02
2023-02-23T10:30:36.364Z,59.30
2023-02-23T10:35:39.823Z,59.57
2023-02-23T10:40:43.322Z,59.34
2023-02-23T10:45:48.464Z,58.50
2023-02-23T10:50:53.013Z,58.82
2023-02-23T10:56:17.887Z,59.64
2023-02-23T11:01:41.840Z,59.28
2023-02-23T11:06:46.255Z,58.26
2023-02-23T11:12:29.673Z,57.29
2023-02-23T11:17:37.743Z,56.60
2023-02-23T11:22:42.417Z,55.74
2023-02-23T11:27:53.889Z,54.88
2023-02-23T11:32:59.560Z,54.59
2023-02-23T11:38:16.192Z,54.30
2023-02-23T11:43:18.208Z,54.37
2023-02-23T11:48:31.353Z,53.66
2023-02-23T11:53:40.406Z,53.55
2023-02-23T11:59:15.519Z,52.58
2023-02-23T12:04:37.416Z,52.75
2023-02-23T12:09:40.245Z,52.71
2023-02-23T12:14:52.060Z,51.99
2023-02-23T12:20:03.471Z,51.49
2023-02-23T12:25:18.507Z,51.11
2023-02-23T12:30:29.443Z,51.59
2023-02-23T12:35:46.833Z,52.16
2023-02-23T12:40:51.016Z,51.50
2023-02-23T12:46:08.760Z,51.84
2023-02-23T12:51:22.229Z,51.57
2023-02-23T12:56:48.566Z,51.72
2023-02-23T13:01:58.581Z,51.64
2023-02-23T13:07:28.398Z,50.73
2023-02-23T13:12:53.374Z,50.11
2023-02-23T13:18:17.205Z,50.50
2023-02-23T13:23:34.250Z,50.81
2023-02-23T13:28:57.217Z,50.79
2023-02-23T13:34:00.983Z,49.98
2023-02-23T13:39:18.552Z,50.24
2023-02-23T13:44:21.112Z,49.62
2023-02-23T13:49:47.144Z,48.83
2023-02-23T13:54:56.984Z,48.72
2023-02-23T14:00:00.033Z,49.38
2023-02-23T14:05:19.603Z,49.22
2023-02-23T14:10:28.406Z,49.68
2023-02-23T14:15:37.806Z,50.03
2023-02-23T14:21:02.180Z,50.22
2023-02-23T14:26:15.700Z,50.93
2023-02-23T14:31:20.871Z,51.22
2023-02-23T14:36:25.847Z,51.53
2023-02-23T14:41:35.831Z,51.94
2023-02-23T14:46:38.410Z,52.81
2023-02-23T14:51:48.570Z,53.23
2023-02-23T14:56:53.744Z,54.08
2023-02-23T15:01:59.696Z,54.75
2023-02-23T15:07:02.348Z,55.36
2023-02-23T15:12:14.044Z,56.53
2023-02-23T15:17:31.873Z,56.58
2023-02-23T15:22:37.122Z,57.30
2023-02-23T15:27:45.286Z,58.26
2023-02-23T15:32:47.342Z,58.65
2023-02-23T15:37:59.514Z,58.79
2023-02-23T15:43:12.402Z,59.64
2023-02-23T15:48:18.570Z,60.12
2023-02-23T15:53:27.678Z,60.52
2023-02-23T15:58:33.120Z,61.05
2023-02-23T16:03:38.713Z,61.62
2023-02-23T16:08:57.030Z,61.86
2023-02-23T16:13:58.854Z,62.45
2023-02-23T16:19:01.756Z,62.95
2023-02-23T16:24:12.655Z,63.30
2023-02-23T16:29:18.714Z,63.85
2023-02-23T16:34:27.697Z,64.26
2023-02-23T16:39:33.536Z,64.83
2023-02-23T16:44:43.361Z,65.23
2023-02-23T16:49:52.316Z,65.91
2023-02-23T16:54:55.992Z,66.34
2023-02-23T16:59:58.794Z,66.87
2023-02-23T17:05:00.675Z,67.03
2023-02-23T17:10:02.433Z,66.83
2023-02-23T17:15:04.820Z,66.77
2023-02-23T17:20:15.592Z,66.58
2023-02-23T17:25:17.947Z,66.44
2023-02-23T17:30:19.896Z,66.43
2023-02-23T17:35:22.557Z,66.27
2023-02-23T17:40:29.065Z,66.42
2023-02-23T17:45:31.177Z,66.37
2023-02-23T17:50:33.079Z,66.34
2023-02-23T17:55:34.976Z,66.36
2023-02-23T18:00:39.058Z,66.68
2023-02-23T18:05:40.885Z,66.49
2023-02-23T18:10:42.785Z,67.05
2023-02-23T18:15:48.099Z,66.89
2023-02-23T18:20:56.295Z,67.09
2023-02-23T18:26:11.013Z,67.18
2023-02-23T18:31:19.579Z,67.52
2023-02-23T18:36:37.292Z,67.75
2023-02-23T18:41:40.488Z,68.34
2023-02-23T18:46:43.876Z,68.84
2023-02-23T18:51:45.986Z,68.77
2023-02-23T18:56:48.661Z,68.58
2023-02-23T19:01:50.796Z,68.54
2023-02-23T19:06:52.743Z,68.81
2023-02-23T19:11:55.482Z,68.76
2023-02-23T19:16:57.857Z,69.12
2023-02-23T19:22:00.292Z,69.04
2023-02-23T19:27:02.706Z,69.25
2023-02-23T19:32:07.451Z,68.83
2023-02-23T19:37:09.716Z,69.55
2023-02-23T19:42:15.967Z,69.57
2023-02-23T19:47:17.709Z,69.88
2023-02-23T19:52:19.484Z,70.02
2023-02-23T19:57:21.238Z,70.54
2023-02-23T20:02:23.081Z,70.54
2023-02-23T20:07:25.431Z,70.75
2023-02-23T20:12:28.718Z,69.89
2023-02-23T20:17:30.476Z,70.20
2023-02-23T20:22:36.278Z,69.74
2023-02-23T20:27:40.934Z,69.67
2023-02-23T20:32:45.138Z,69.38
2023-02-23T20:37:47.198Z,69.41
2023-02-23T20:42:51.234Z,69.24
2023-02-23T20:47:53.641Z,69.17
2023-02-23T20:52:56.177Z,69.35
2023-02-23T20:58:01.922Z,69.94
2023-02-23T21:03:03.754Z,69.81
2023-02-23T21:08:07.034Z,70.03
2023-02-23T21:13:12.845Z,70.52
2023-02-23T21:18:14.599Z,70.25
2023-02-23T21:23:17.683Z,70.63
2023-02-23T21:28:20.787Z,70.82
2023-02-23T21:33:22.663Z,71.05
2023-02-23T21:38:27.196Z,71.33
2023-02-23T21:43:29.209Z,71.86
2023-02-23T21:48:31.000Z,72.00
2023-02-23T21:53:34.768Z,72.44
2023-02-23T21:58:36.618Z,72.15
2023-02-23T22:03:38.666Z,72.27
2023-02-23T22:08:43.091Z,72.16
2023-02-23T22:13:54.481Z,72.49
2023-02-23T22:18:56.355Z,72.88
2023-02-23T22:23:58.272Z,72.66
2023-02-23T22:29:00.219Z,72.81
2023-02-23T22:34:02.009Z,72.94
2023-02-23T22:39:10.006Z,72.75
2023-02-23T22:44:16.938Z,73.22
2023-02-23T22:49:20.508Z,73.36
2023-02-23T22:54:24.309Z,73.77
2023-02-23T22:59:28.549Z,73.86
2023-02-23T23:04:30.574Z,74.39
2023-02-23T23:09:33.492Z,74.67
2023-02-23T23:14:35.389Z,74.50
2023-02-23T23:19:39.196Z,75.37
2023-02-23T23:24:46.220Z,75.51
2023-02-23T23:29:48.790Z,75.32
2023-02-23T23:34:50.561Z,76.09
2023-02-23T23:40:00.103Z,76.04
2023-02-23T23:45:01.977Z,76.44
2023-02-23T23:50:10.701Z,76.51
2023-02-23T23:55:14.810Z,76.53
